Yengema Airport

Jump to: basic info | weather | comments

Related pages: nearby airports | nearby navaids | notams | map

Basic information (top)

Codes: WYE GFYE
Location: lon 8.610470, lat -11.045400, elev 1,300 ft / 396 m msl
Status: medium_airport
Scheduled airline service: yes
Links: Wikipedia Mobile

Weather (top)

Current conditions for Lungi International Airport 128nm (236km) W (rec'd 2014/04/19 01:30Z):

GFLL 190130Z 33312KT CAVOK 29/24 Q1010

Airport forecast for Lungi International Airport 128nm (236km) W (rec'd 2014/04/18 06:00Z):

TAF GFLL 180400Z 1806/1912 30008KT 9999 TS SCT013 FEW024CB 
      BECMG 1808/1810 24004KT 9999 BKN012 
      TEMPO 1812/1817 28006KT 9999 FEW025CB 
      BECMG 1820/1822 29007KT 9999 
      TEMPO 1903/1905 3000 BR SCT014

Latest comments (top)

No comments yet for Yengema Airport

More... (top)

See also NOTAMs and nearby airports and navaids, or visit the Yengema Airport page at the main OurAirports website..